createdAt,value
2018-02-04T00:00:28.079Z,7.12
2018-02-04T00:02:55.542Z,8.20
2018-02-04T00:05:23.300Z,7.90
2018-02-04T00:07:50.776Z,8.77
2018-02-04T00:10:18.347Z,6.85
2018-02-04T00:12:46.596Z,7.70
2018-02-04T00:15:14.052Z,7.47
2018-02-04T00:17:41.732Z,7.85
2018-02-04T00:20:09.192Z,6.72
2018-02-04T00:22:38.322Z,8.73
2018-02-04T00:25:08.208Z,8.65
2018-02-04T00:27:35.962Z,7.78
2018-02-04T00:30:03.431Z,7.72
2018-02-04T00:32:31.148Z,7.72
2018-02-04T00:34:58.631Z,7.53
2018-02-04T00:37:26.307Z,7.15
2018-02-04T00:39:53.856Z,8.48
2018-02-04T00:42:21.320Z,8.98
2018-02-04T00:44:48.780Z,8.30
2018-02-04T00:47:16.235Z,7.10
2018-02-04T00:49:43.877Z,8.13
2018-02-04T00:52:11.343Z,6.68
2018-02-04T00:54:38.823Z,7.40
2018-02-04T00:57:07.223Z,8.10
2018-02-04T00:59:34.676Z,7.60
2018-02-04T01:02:02.207Z,6.37
2018-02-04T01:04:29.660Z,8.90
2018-02-04T01:06:57.428Z,7.80
2018-02-04T01:09:24.884Z,6.80
2018-02-04T01:11:52.347Z,7.03
2018-02-04T01:14:20.008Z,5.37
2018-02-04T01:16:47.459Z,8.80
2018-02-04T01:19:14.927Z,7.85
2018-02-04T01:21:42.376Z,4.45
2018-02-04T01:24:09.844Z,6.90
2018-02-04T01:26:37.402Z,6.62
2018-02-04T01:29:05.167Z,6.15
2018-02-04T01:31:32.621Z,6.28
2018-02-04T01:34:00.084Z,5.72
2018-02-04T01:36:27.539Z,4.47
2018-02-04T01:38:55.000Z,5.80
2018-02-04T01:41:22.527Z,5.75
2018-02-04T01:43:50.216Z,6.05
2018-02-04T01:46:17.980Z,5.45
2018-02-04T01:48:45.431Z,4.45
2018-02-04T01:51:12.892Z,5.30
2018-02-04T01:53:40.674Z,5.50
2018-02-04T01:56:08.115Z,4.20
2018-02-04T01:58:35.884Z,3.90
2018-02-04T02:01:03.345Z,4.40
2018-02-04T02:03:31.117Z,3.90
2018-02-04T02:05:58.873Z,3.70
2018-02-04T02:08:26.327Z,3.67
2018-02-04T02:10:53.788Z,3.90
2018-02-04T02:13:21.327Z,3.58
2018-02-04T02:15:48.789Z,3.35
2018-02-04T02:18:16.475Z,2.05
2018-02-04T02:20:43.928Z,3.62
2018-02-04T02:23:11.392Z,4.10
2018-02-04T02:25:38.845Z,4.10
2018-02-04T02:28:06.607Z,3.35
2018-02-04T02:30:34.283Z,4.70
2018-02-04T02:33:01.744Z,4.53
2018-02-04T02:35:29.292Z,4.43
2018-02-04T02:37:56.744Z,5.30
2018-02-04T02:40:24.515Z,4.18
2018-02-04T02:42:51.965Z,4.82
2018-02-04T02:45:19.448Z,4.03
2018-02-04T02:47:47.100Z,4.47
2018-02-04T02:50:14.562Z,4.85
2018-02-04T02:52:42.023Z,4.80
2018-02-04T02:55:09.568Z,4.00
2018-02-04T02:57:37.025Z,4.12
2018-02-04T03:00:04.788Z,3.08
2018-02-04T03:02:32.244Z,4.28
2018-02-04T03:05:00.020Z,3.42
2018-02-04T03:07:27.740Z,4.35
2018-02-04T03:09:55.196Z,3.20
2018-02-04T03:12:22.699Z,3.05
2018-02-04T03:14:50.459Z,2.40
2018-02-04T03:17:18.151Z,3.15
2018-02-04T03:19:45.618Z,2.97
2018-02-04T03:22:13.072Z,3.35
2018-02-04T03:24:40.600Z,2.85
2018-02-04T03:27:08.059Z,2.65
2018-02-04T03:29:35.821Z,3.35
2018-02-04T03:32:03.496Z,2.60
2018-02-04T03:34:30.952Z,3.72
2018-02-04T03:36:58.419Z,3.10
2018-02-04T03:39:26.639Z,2.00
2018-02-04T03:41:54.256Z,3.67
2018-02-04T03:44:21.799Z,2.55
2018-02-04T03:46:49.570Z,2.65
2018-02-04T03:49:17.059Z,2.80
2018-02-04T03:51:44.740Z,2.55
2018-02-04T03:54:12.260Z,2.70
2018-02-04T03:56:39.718Z,3.10
2018-02-04T03:59:07.447Z,2.30
2018-02-04T04:01:34.900Z,2.75
2018-02-04T04:04:02.359Z,2.92
2018-02-04T04:06:29.825Z,2.67
2018-02-04T04:08:57.300Z,2.80
2018-02-04T04:11:24.775Z,2.35
2018-02-04T04:13:52.231Z,3.20
2018-02-04T04:16:19.972Z,2.78
2018-02-04T04:18:47.435Z,2.10
2018-02-04T04:21:14.896Z,2.42
2018-02-04T04:23:42.380Z,2.30
2018-02-04T04:26:10.068Z,2.12
2018-02-04T04:28:37.580Z,2.87
2018-02-04T04:31:05.343Z,2.50
2018-02-04T04:33:33.958Z,3.00
2018-02-04T04:36:01.420Z,2.10
2018-02-04T04:38:28.944Z,2.05
2018-02-04T04:40:56.404Z,2.33
2018-02-04T04:43:23.965Z,2.62
2018-02-04T04:45:51.435Z,2.30
2018-02-04T04:48:19.657Z,2.45
2018-02-04T04:50:47.107Z,2.50
2018-02-04T04:53:14.564Z,2.80
2018-02-04T04:55:42.029Z,2.80
2018-02-04T04:58:09.523Z,2.30
2018-02-04T05:00:37.288Z,2.37
2018-02-04T05:03:04.767Z,1.90
2018-02-04T05:05:32.416Z,2.60
2018-02-04T05:07:59.972Z,2.75
2018-02-04T05:10:27.427Z,1.90
2018-02-04T05:12:54.883Z,2.20
2018-02-04T05:15:22.368Z,2.47
2018-02-04T05:17:49.819Z,2.40
2018-02-04T05:20:17.360Z,2.45
2018-02-04T05:22:44.819Z,2.35
2018-02-04T05:25:12.284Z,2.35
2018-02-04T05:27:39.852Z,2.62
2018-02-04T05:30:07.308Z,2.10
2018-02-04T05:32:35.013Z,2.65
2018-02-04T05:35:02.568Z,3.05
2018-02-04T05:37:30.025Z,3.12
2018-02-04T05:39:57.536Z,2.53
2018-02-04T05:42:25.212Z,2.90
2018-02-04T05:44:52.760Z,2.97
2018-02-04T05:47:20.216Z,2.75
2018-02-04T05:49:47.675Z,2.50
2018-02-04T05:52:15.439Z,3.00
2018-02-04T05:54:42.896Z,2.92
2018-02-04T05:57:10.664Z,3.45
2018-02-04T05:59:38.428Z,3.10
2018-02-04T06:02:06.195Z,2.75
2018-02-04T06:04:33.965Z,2.67
2018-02-04T06:07:01.636Z,2.62
2018-02-04T06:09:29.182Z,2.30
2018-02-04T06:11:56.640Z,2.70
2018-02-04T06:14:24.105Z,3.25
2018-02-04T06:16:51.865Z,3.35
2018-02-04T06:19:19.629Z,4.15
2018-02-04T06:21:47.320Z,3.30
2018-02-04T06:24:14.772Z,2.40
2018-02-04T06:26:42.228Z,3.10
2018-02-04T06:29:09.888Z,3.15
2018-02-04T06:31:38.112Z,2.62
2018-02-04T06:34:05.563Z,2.50
2018-02-04T06:36:33.060Z,3.12
2018-02-04T06:39:00.515Z,2.83
2018-02-04T06:41:28.283Z,3.70
2018-02-04T06:43:55.748Z,3.22
2018-02-04T06:46:23.416Z,3.33
2018-02-04T06:48:50.872Z,3.17
2018-02-04T06:51:18.335Z,3.17
2018-02-04T06:53:45.796Z,2.97
2018-02-04T06:56:13.345Z,3.70
2018-02-04T06:58:40.800Z,3.80
2018-02-04T07:01:08.473Z,3.83
2018-02-04T07:03:35.927Z,3.28
2018-02-04T07:06:03.476Z,3.58
2018-02-04T07:08:31.248Z,3.65
2018-02-04T07:10:59.008Z,3.35
2018-02-04T07:13:26.771Z,3.05
2018-02-04T07:15:54.536Z,3.78
2018-02-04T07:18:22.145Z,3.45
2018-02-04T07:20:49.759Z,2.90
2018-02-04T07:23:17.220Z,3.30
2018-02-04T07:25:44.679Z,2.95
2018-02-04T07:28:12.443Z,3.95
2018-02-04T07:30:39.900Z,2.70
2018-02-04T07:33:07.384Z,3.50
2018-02-04T07:35:35.048Z,2.92
2018-02-04T07:38:02.507Z,3.33
2018-02-04T07:40:29.960Z,3.40
2018-02-04T07:42:57.500Z,3.20
2018-02-04T07:45:25.109Z,3.75
2018-02-04T07:47:52.568Z,2.70
2018-02-04T07:50:20.024Z,3.10
2018-02-04T07:52:47.544Z,3.17
2018-02-04T07:55:15.089Z,3.83
2018-02-04T07:57:42.556Z,3.85
2018-02-04T08:00:10.321Z,4.30
2018-02-04T08:02:38.081Z,3.60
2018-02-04T08:05:05.755Z,3.35
2018-02-04T08:07:33.304Z,4.53
2018-02-04T08:10:00.759Z,3.30
2018-02-04T08:12:28.217Z,3.80
2018-02-04T08:14:55.983Z,3.20
2018-02-04T08:17:23.700Z,3.30
2018-02-04T08:19:51.213Z,3.65
2018-02-04T08:22:18.880Z,4.30
2018-02-04T08:24:47.272Z,3.47
2018-02-04T08:27:14.964Z,3.75
2018-02-04T08:29:42.413Z,4.20
2018-02-04T08:32:09.939Z,4.37
2018-02-04T08:34:37.393Z,3.92
2018-02-04T08:37:04.861Z,7.45
2018-02-04T08:39:33.089Z,4.18
2018-02-04T08:42:00.784Z,5.15
2018-02-04T08:44:28.241Z,4.25
2018-02-04T08:46:55.976Z,4.62
2018-02-04T08:49:23.468Z,4.37
2018-02-04T08:51:50.924Z,3.45
2018-02-04T08:54:18.388Z,4.15
2018-02-04T08:56:46.056Z,3.47
2018-02-04T08:59:13.536Z,3.15
2018-02-04T09:01:41.039Z,4.03
2018-02-04T09:04:08.669Z,3.12
2018-02-04T09:06:36.116Z,3.45
2018-02-04T09:09:03.576Z,4.18
2018-02-04T09:11:31.116Z,3.20
2018-02-04T09:13:58.578Z,4.10
2018-02-04T09:16:26.117Z,4.50
2018-02-04T09:18:53.583Z,3.90
2018-02-04T09:21:21.068Z,3.75
2018-02-04T09:23:48.519Z,4.68
2018-02-04T09:26:15.983Z,3.50
2018-02-04T09:28:43.620Z,3.78
2018-02-04T09:31:11.169Z,4.35
2018-02-04T09:33:38.932Z,4.28
2018-02-04T09:36:06.703Z,4.82
2018-02-04T09:38:34.158Z,4.40
2018-02-04T09:41:01.611Z,3.95
2018-02-04T09:43:29.071Z,4.82
2018-02-04T09:45:56.544Z,4.22
2018-02-04T09:48:24.005Z,4.70
2018-02-04T09:50:51.751Z,4.30
2018-02-04T09:53:19.516Z,5.00
2018-02-04T09:55:46.968Z,4.47
2018-02-04T09:58:14.496Z,4.78
2018-02-04T10:00:42.201Z,4.65
2018-02-04T10:03:09.964Z,3.87
2018-02-04T10:05:37.728Z,4.70
2018-02-04T10:08:05.292Z,5.20
2018-02-04T10:10:32.956Z,4.95
2018-02-04T10:13:00.721Z,5.22
2018-02-04T10:15:28.484Z,5.07
2018-02-04T10:17:56.248Z,5.40
2018-02-04T10:20:24.021Z,6.90
2018-02-04T10:22:51.691Z,6.80
2018-02-04T10:25:19.192Z,5.90
2018-02-04T10:27:46.651Z,5.95
2018-02-04T10:30:14.115Z,6.85
2018-02-04T10:32:41.612Z,5.90
2018-02-04T10:35:09.071Z,5.90
2018-02-04T10:37:36.754Z,5.72
2018-02-04T10:40:04.600Z,4.93
2018-02-04T10:42:32.329Z,5.40
2018-02-04T10:44:59.819Z,5.82
2018-02-04T10:47:27.275Z,5.37
2018-02-04T10:49:55.044Z,6.75
2018-02-04T10:52:22.808Z,6.03
2018-02-04T10:54:50.283Z,5.68
2018-02-04T10:57:17.732Z,6.10
2018-02-04T10:59:45.188Z,5.93
2018-02-04T11:02:12.948Z,5.22
2018-02-04T11:04:40.711Z,5.72
2018-02-04T11:07:08.480Z,5.43
2018-02-04T11:09:35.939Z,5.47
2018-02-04T11:12:03.395Z,4.72
2018-02-04T11:14:31.159Z,5.60
2018-02-04T11:16:58.731Z,6.07
2018-02-04T11:19:26.384Z,5.75
2018-02-04T11:21:54.117Z,5.95
2018-02-04T11:24:21.536Z,4.80
2018-02-04T11:26:48.988Z,3.42
2018-02-04T11:29:16.520Z,3.85
2018-02-04T11:31:44.289Z,4.85
2018-02-04T11:34:11.991Z,6.20
2018-02-04T11:36:39.508Z,4.20
2018-02-04T11:39:06.960Z,3.83
2018-02-04T11:41:34.524Z,3.15
2018-02-04T11:44:01.976Z,2.75
2018-02-04T11:46:29.432Z,3.25
2018-02-04T11:48:56.955Z,2.58
2018-02-04T11:51:24.471Z,3.12
2018-02-04T11:53:52.097Z,3.20
2018-02-04T11:56:19.608Z,3.20
2018-02-04T11:58:47.832Z,3.20
2018-02-04T12:01:15.293Z,2.55
2018-02-04T12:03:42.744Z,2.80
2018-02-04T12:06:10.697Z,3.40
2018-02-04T12:08:38.305Z,2.75
2018-02-04T12:11:05.767Z,2.90
2018-02-04T12:13:33.535Z,3.53
2018-02-04T12:16:01.293Z,3.75
2018-02-04T12:18:28.747Z,4.03
2018-02-04T12:20:56.222Z,3.75
2018-02-04T12:23:23.977Z,4.32
2018-02-04T12:25:51.433Z,3.47
2018-02-04T12:28:19.195Z,4.12
2018-02-04T12:30:46.653Z,3.80
2018-02-04T12:33:14.127Z,3.55
2018-02-04T12:35:41.876Z,3.05
2018-02-04T12:38:09.643Z,3.25
2018-02-04T12:40:37.109Z,3.55
2018-02-04T12:43:04.560Z,2.72
2018-02-04T12:45:32.247Z,3.35
2018-02-04T12:47:59.779Z,3.05
2018-02-04T12:50:27.244Z,3.37
2018-02-04T12:52:54.695Z,2.55
2018-02-04T12:55:22.459Z,2.70
2018-02-04T12:57:49.912Z,1.92
2018-02-04T13:00:17.365Z,2.60
2018-02-04T13:02:44.844Z,2.65
2018-02-04T13:05:12.296Z,2.45
2018-02-04T13:07:39.752Z,2.17
2018-02-04T13:10:07.325Z,2.50
2018-02-04T13:12:34.971Z,2.33
2018-02-04T13:15:02.437Z,2.97
2018-02-04T13:17:29.883Z,2.60
2018-02-04T13:19:57.660Z,3.05
2018-02-04T13:22:25.425Z,3.00
2018-02-04T13:24:52.880Z,2.95
2018-02-04T13:27:20.344Z,4.07
2018-02-04T13:29:47.796Z,3.37
2018-02-04T13:32:15.563Z,3.33
2018-02-04T13:34:43.333Z,3.60
2018-02-04T13:37:10.787Z,3.40
2018-02-04T13:39:38.239Z,3.75
2018-02-04T13:42:05.699Z,3.05
2018-02-04T13:44:33.457Z,4.55
2018-02-04T13:47:00.936Z,3.60
2018-02-04T13:49:28.445Z,3.35
2018-02-04T13:51:55.900Z,3.83
2018-02-04T13:54:23.516Z,4.15
2018-02-04T13:56:50.967Z,3.15
2018-02-04T13:59:18.429Z,4.43
2018-02-04T14:01:46.899Z,4.70
2018-02-04T14:04:14.664Z,5.50
2018-02-04T14:06:42.128Z,3.90
2018-02-04T14:09:09.888Z,4.35
2018-02-04T14:11:37.357Z,3.00
2018-02-04T14:14:04.812Z,2.87
2018-02-04T14:16:32.567Z,0.95
2018-02-04T14:19:00.024Z,3.40
2018-02-04T14:21:27.478Z,4.25
2018-02-04T14:23:54.928Z,4.50
2018-02-04T14:26:22.380Z,3.35
2018-02-04T14:28:49.857Z,5.03
2018-02-04T14:31:17.632Z,4.78
2018-02-04T14:33:45.119Z,4.57
2018-02-04T14:36:12.756Z,4.65
2018-02-04T14:38:40.303Z,4.80
2018-02-04T14:41:07.759Z,5.55
2018-02-04T14:43:35.528Z,4.22
2018-02-04T14:46:03.108Z,5.18
2018-02-04T14:48:31.324Z,4.75
2018-02-04T14:50:58.823Z,6.07
2018-02-04T14:53:26.272Z,5.22
2018-02-04T14:55:53.728Z,5.10
2018-02-04T14:58:21.203Z,4.32
2018-02-04T15:00:48.776Z,4.60
2018-02-04T15:03:16.233Z,4.68
2018-02-04T15:05:44.455Z,5.47
2018-02-04T15:08:11.955Z,4.37
2018-02-04T15:10:39.411Z,5.35
2018-02-04T15:13:06.872Z,4.60
2018-02-04T15:15:34.540Z,5.30
2018-02-04T15:18:02.003Z,4.65
2018-02-04T15:20:29.553Z,5.37
2018-02-04T15:22:57.000Z,3.25
2018-02-04T15:25:24.452Z,4.55
2018-02-04T15:27:51.920Z,5.35
2018-02-04T15:30:19.688Z,5.70
2018-02-04T15:32:47.456Z,5.45
2018-02-04T15:35:15.216Z,4.78
2018-02-04T15:37:42.675Z,5.00
2018-02-04T15:40:10.436Z,4.20
2018-02-04T15:42:37.902Z,4.68
2018-02-04T15:45:05.667Z,4.65
2018-02-04T15:47:33.355Z,4.70
2018-02-04T15:50:00.808Z,4.53
2018-02-04T15:52:29.187Z,5.47
2018-02-04T15:54:57.640Z,5.72
2018-02-04T15:57:25.092Z,4.95
2018-02-04T15:59:52.752Z,4.55
2018-02-04T16:02:20.323Z,4.95
2018-02-04T16:04:48.097Z,6.75
2018-02-04T16:07:15.860Z,5.68
2018-02-04T16:09:43.532Z,6.45
2018-02-04T16:12:10.992Z,7.07
2018-02-04T16:14:38.545Z,5.47
2018-02-04T16:17:06.000Z,6.03
2018-02-04T16:19:33.668Z,5.80
2018-02-04T16:22:01.299Z,5.60
2018-02-04T16:24:28.979Z,6.12
2018-02-04T16:26:56.755Z,6.30
2018-02-04T16:29:24.228Z,7.07
2018-02-04T16:31:51.968Z,6.97
2018-02-04T16:34:19.424Z,6.12
2018-02-04T16:36:46.880Z,7.28
2018-02-04T16:39:14.348Z,7.82
2018-02-04T16:41:41.800Z,8.23
2018-02-04T16:44:09.565Z,7.70
2018-02-04T16:46:37.032Z,7.55
2018-02-04T16:49:04.697Z,9.70
2018-02-04T16:51:32.244Z,8.68
2018-02-04T16:53:59.957Z,8.10
2018-02-04T16:56:31.379Z,6.35
2018-02-04T16:58:58.835Z,9.10
2018-02-04T17:01:26.291Z,9.57
2018-02-04T17:03:53.839Z,8.35
2018-02-04T17:06:21.508Z,8.35
2018-02-04T17:08:49.064Z,10.70
2018-02-04T17:11:16.847Z,9.60
2018-02-04T17:13:44.598Z,9.52
2018-02-04T17:16:12.051Z,7.05
2018-02-04T17:18:39.507Z,9.00
2018-02-04T17:21:06.968Z,11.05
2018-02-04T17:23:34.444Z,10.85
2018-02-04T17:26:02.008Z,10.65
2018-02-04T17:28:30.238Z,15.20
2018-02-04T17:30:57.731Z,11.55
2018-02-04T17:33:25.187Z,10.93
2018-02-04T17:35:52.645Z,11.10
2018-02-04T17:38:20.100Z,14.27
2018-02-04T17:40:47.767Z,13.60
2018-02-04T17:43:15.227Z,13.45
2018-02-04T17:45:42.685Z,10.75
2018-02-04T17:48:10.920Z,11.02
2018-02-04T17:50:38.519Z,11.23
2018-02-04T17:53:05.987Z,11.10
2018-02-04T17:55:34.240Z,11.20
2018-02-04T17:58:01.820Z,12.40
2018-02-04T18:00:29.367Z,13.10
2018-02-04T18:02:57.044Z,13.55
2018-02-04T18:05:24.591Z,14.98
2018-02-04T18:07:52.356Z,12.80
2018-02-04T18:10:20.120Z,11.70
2018-02-04T18:12:47.880Z,15.05
2018-02-04T18:15:15.645Z,15.27
2018-02-04T18:17:43.116Z,11.63
2018-02-04T18:20:10.580Z,11.15
2018-02-04T18:22:38.240Z,11.73
2018-02-04T18:25:05.726Z,11.65
2018-02-04T18:27:33.184Z,13.30
2018-02-04T18:30:00.645Z,11.85
2018-02-04T18:32:28.163Z,14.15
2018-02-04T18:34:55.625Z,11.95
2018-02-04T18:37:23.169Z,12.32
2018-02-04T18:39:50.840Z,13.73
2018-02-04T18:42:18.304Z,12.80
2018-02-04T18:44:45.772Z,14.27
2018-02-04T18:47:13.232Z,13.10
2018-02-04T18:49:40.700Z,13.73
2018-02-04T18:52:08.436Z,12.95
2018-02-04T18:54:35.920Z,14.70
2018-02-04T18:57:03.571Z,12.90
2018-02-04T18:59:31.119Z,13.02
2018-02-04T19:01:58.843Z,15.27
2018-02-04T19:04:26.344Z,15.65
2018-02-04T19:06:54.166Z,14.65
2018-02-04T19:09:21.572Z,13.45
2018-02-04T19:11:49.259Z,12.20
2018-02-04T19:14:16.716Z,12.52
2018-02-04T19:16:44.175Z,12.82
2018-02-04T19:19:11.635Z,13.25
2018-02-04T19:21:39.093Z,13.40
2018-02-04T19:24:06.579Z,13.68
2018-02-04T19:26:34.080Z,16.00
2018-02-04T19:29:01.836Z,16.67
2018-02-04T19:31:29.306Z,21.45
2018-02-04T19:33:56.756Z,15.95
2018-02-04T19:36:24.451Z,18.42
2018-02-04T19:38:51.989Z,14.55
2018-02-04T19:41:19.451Z,18.45
2018-02-04T19:43:47.119Z,20.08
2018-02-04T19:46:14.659Z,18.40
2018-02-04T19:48:42.152Z,16.80
2018-02-04T19:51:09.800Z,15.20
2018-02-04T19:53:37.347Z,13.40
2018-02-04T19:56:04.813Z,15.15
2018-02-04T19:58:32.481Z,12.15
2018-02-04T20:01:00.332Z,10.10
2018-02-04T20:03:28.095Z,12.95
2018-02-04T20:05:55.560Z,13.40
2018-02-04T20:08:23.235Z,12.05
2018-02-04T20:10:50.781Z,10.75
2018-02-04T20:13:18.235Z,13.25
2018-02-04T20:15:46.000Z,13.90
2018-02-04T20:18:13.768Z,13.18
2018-02-04T20:20:41.231Z,12.23
2018-02-04T20:23:08.888Z,11.45
2018-02-04T20:25:36.448Z,10.90
2018-02-04T20:28:04.216Z,12.48
2018-02-04T20:30:31.976Z,11.35
2018-02-04T20:33:11.295Z,12.18
2018-02-04T20:35:38.792Z,10.27
2018-02-04T20:38:06.335Z,11.40
2018-02-04T20:40:34.010Z,11.75
2018-02-04T20:43:01.549Z,9.05
2018-02-04T20:45:29.472Z,8.60
2018-02-04T20:47:57.090Z,8.93
2018-02-04T20:50:24.849Z,8.98
2018-02-04T20:52:52.307Z,9.98
2018-02-04T20:55:20.072Z,9.20
2018-02-04T20:57:47.758Z,8.18
2018-02-04T21:00:15.296Z,8.38
2018-02-04T21:02:42.768Z,9.13
2018-02-04T21:05:10.447Z,9.90
2018-02-04T21:07:37.987Z,9.68
2018-02-04T21:10:05.447Z,8.80
2018-02-04T21:12:33.116Z,9.30
2018-02-04T21:15:00.655Z,8.98
2018-02-04T21:17:28.436Z,10.10
2018-02-04T21:19:55.900Z,12.90
2018-02-04T21:22:23.356Z,9.60
2018-02-04T21:24:51.099Z,10.40
2018-02-04T21:27:18.559Z,10.07
2018-02-04T21:29:46.232Z,10.32
2018-02-04T21:32:13.695Z,8.45
2018-02-04T21:34:41.240Z,10.40
2018-02-04T21:37:09.004Z,13.13
2018-02-04T21:39:36.472Z,15.25
2018-02-04T21:42:04.181Z,17.73
2018-02-04T21:44:31.620Z,16.65
2018-02-04T21:46:59.144Z,12.90
2018-02-04T21:49:26.607Z,11.98
2018-02-04T21:51:54.284Z,10.95
2018-02-04T21:54:22.104Z,11.60
2018-02-04T21:56:49.567Z,13.15
2018-02-04T21:59:17.033Z,13.55
2018-02-04T22:01:44.532Z,12.80
2018-02-04T22:04:12.273Z,11.43
2018-02-04T22:06:39.732Z,11.65
2018-02-04T22:09:07.405Z,10.90
2018-02-04T22:11:34.953Z,12.30
2018-02-04T22:14:02.571Z,13.32
2018-02-04T22:16:30.156Z,13.20
2018-02-04T22:18:57.632Z,15.32
2018-02-04T22:21:25.397Z,13.18
2018-02-04T22:23:52.860Z,12.80
2018-02-04T22:26:20.324Z,12.15
2018-02-04T22:28:48.079Z,11.95
2018-02-04T22:31:15.848Z,13.55
2018-02-04T22:33:43.607Z,13.68
2018-02-04T22:36:11.079Z,11.77
2018-02-04T22:38:38.836Z,12.45
2018-02-04T22:41:07.069Z,13.20
2018-02-04T22:43:34.528Z,13.70
2018-02-04T22:46:02.134Z,10.60
2018-02-04T22:48:29.719Z,10.60
2018-02-04T22:50:57.357Z,12.02
2018-02-04T22:53:24.819Z,12.45
2018-02-04T22:55:52.575Z,12.13
2018-02-04T22:58:20.340Z,12.32
2018-02-04T23:00:48.112Z,11.98
2018-02-04T23:03:15.873Z,12.95
2018-02-04T23:05:43.635Z,13.93
2018-02-04T23:08:11.399Z,14.63
2018-02-04T23:10:39.164Z,12.68
2018-02-04T23:13:06.924Z,9.60
2018-02-04T23:15:34.388Z,13.98
2018-02-04T23:18:01.857Z,12.55
2018-02-04T23:20:29.326Z,13.93
2018-02-04T23:22:56.981Z,14.00
2018-02-04T23:25:24.443Z,13.82
2018-02-04T23:27:51.912Z,12.70
2018-02-04T23:30:19.372Z,12.77
2018-02-04T23:32:46.900Z,10.88
2018-02-04T23:35:14.363Z,12.15
2018-02-04T23:37:42.127Z,12.40
2018-02-04T23:40:09.588Z,12.55
2018-02-04T23:42:37.346Z,10.90
2018-02-04T23:45:05.115Z,13.62
2018-02-04T23:47:32.704Z,12.88
2018-02-04T23:50:00.948Z,13.98
2018-02-04T23:52:28.627Z,12.77
2018-02-04T23:54:56.098Z,14.43
2018-02-04T23:57:24.327Z,13.65
2018-02-04T23:59:51.920Z,14.57
